createdAt,value
2023-01-12T00:00:18.610Z,3.06
2023-01-12T00:01:21.236Z,3.15
2023-01-12T00:02:23.715Z,3.83
2023-01-12T00:03:26.227Z,3.17
2023-01-12T00:04:28.679Z,3.63
2023-01-12T00:05:31.179Z,3.17
2023-01-12T00:06:33.791Z,3.47
2023-01-12T00:07:36.192Z,3.21
2023-01-12T00:08:38.606Z,3.22
2023-01-12T00:09:41.037Z,3.25
2023-01-12T00:10:43.484Z,3.16
2023-01-12T00:11:46.071Z,2.95
2023-01-12T00:12:48.531Z,3.04
2023-01-12T00:13:50.792Z,3.18
2023-01-12T00:14:53.197Z,3.15
2023-01-12T00:15:56.644Z,3.28
2023-01-12T00:16:59.283Z,3.58
2023-01-12T00:18:01.464Z,3.22
2023-01-12T00:19:03.701Z,3.37
2023-01-12T00:20:05.882Z,3.20
2023-01-12T00:21:08.070Z,3.02
2023-01-12T00:22:10.469Z,3.02
2023-01-12T00:23:12.662Z,2.89
2023-01-12T00:24:14.929Z,3.02
2023-01-12T00:25:17.168Z,3.08
2023-01-12T00:26:19.368Z,3.02
2023-01-12T00:27:21.746Z,2.83
2023-01-12T00:28:23.873Z,2.76
2023-01-12T00:29:26.055Z,3.08
2023-01-12T00:30:28.232Z,2.83
2023-01-12T00:31:30.720Z,2.67
2023-01-12T00:32:33.393Z,2.84
2023-01-12T00:33:35.767Z,3.05
2023-01-12T00:34:38.689Z,2.90
2023-01-12T00:35:41.128Z,2.38
2023-01-12T00:36:43.560Z,2.81
2023-01-12T00:37:46.562Z,2.56
2023-01-12T00:38:49.030Z,2.76
2023-01-12T00:40:01.759Z,2.70
2023-01-12T00:40:55.538Z,2.86
2023-01-12T00:41:58.020Z,2.79
2023-01-12T00:43:00.563Z,2.82
2023-01-12T00:44:03.090Z,2.75
2023-01-12T00:45:05.521Z,2.71
2023-01-12T00:46:08.114Z,2.74
2023-01-12T00:47:10.620Z,2.63
2023-01-12T00:48:13.280Z,2.65
2023-01-12T00:49:15.417Z,2.43
2023-01-12T00:50:19.512Z,2.67
2023-01-12T00:51:21.491Z,3.11
2023-01-12T00:52:31.787Z,2.66
2023-01-12T00:53:27.632Z,2.89
2023-01-12T00:54:29.794Z,2.69
2023-01-12T00:55:32.262Z,2.77
2023-01-12T00:56:34.789Z,2.68
2023-01-12T00:57:37.212Z,2.86
2023-01-12T00:58:39.831Z,2.72
2023-01-12T00:59:42.450Z,2.22
2023-01-12T01:00:44.979Z,2.67
2023-01-12T01:01:47.922Z,2.88
2023-01-12T01:02:50.363Z,2.93
2023-01-12T01:03:53.089Z,2.90
2023-01-12T01:04:55.605Z,2.87
2023-01-12T01:05:58.042Z,2.90
2023-01-12T01:07:00.489Z,2.79
2023-01-12T01:08:02.935Z,2.75
2023-01-12T01:09:05.629Z,2.88
2023-01-12T01:10:08.086Z,2.70
2023-01-12T01:11:10.595Z,2.84
2023-01-12T01:12:13.082Z,2.81
2023-01-12T01:13:15.357Z,2.51
2023-01-12T01:14:17.640Z,2.87
2023-01-12T01:15:20.150Z,2.82
2023-01-12T01:16:22.631Z,2.77
2023-01-12T01:17:25.092Z,2.70
2023-01-12T01:18:27.592Z,2.57
2023-01-12T01:19:31.373Z,2.86
2023-01-12T01:20:33.829Z,2.56
2023-01-12T01:21:36.045Z,2.75
2023-01-12T01:22:38.542Z,2.50
2023-01-12T01:23:40.958Z,2.52
2023-01-12T01:24:43.590Z,2.84
2023-01-12T01:25:46.188Z,2.42
2023-01-12T01:26:48.626Z,2.44
2023-01-12T01:27:51.050Z,2.56
2023-01-12T01:28:53.312Z,2.36
2023-01-12T01:29:55.613Z,2.61
2023-01-12T01:30:57.823Z,2.51
2023-01-12T01:32:00.094Z,2.52
2023-01-12T01:33:02.321Z,2.46
2023-01-12T01:34:04.557Z,2.70
2023-01-12T01:35:06.752Z,2.75
2023-01-12T01:36:09.002Z,2.91
2023-01-12T01:37:11.240Z,2.57
2023-01-12T01:38:13.475Z,2.52
2023-01-12T01:39:15.678Z,2.24
2023-01-12T01:40:17.837Z,2.92
2023-01-12T01:41:20.080Z,2.55
2023-01-12T01:42:22.277Z,2.64
2023-01-12T01:43:24.495Z,2.60
2023-01-12T01:44:26.691Z,2.63
2023-01-12T01:45:29.184Z,2.56
2023-01-12T01:46:31.662Z,2.66
2023-01-12T01:47:34.166Z,2.92
2023-01-12T01:48:36.596Z,2.65
2023-01-12T01:49:38.871Z,3.08
2023-01-12T01:50:41.079Z,2.59
2023-01-12T01:51:43.525Z,2.88
2023-01-12T01:52:46.088Z,2.76
2023-01-12T01:53:48.592Z,2.75
2023-01-12T01:54:51.020Z,2.51
2023-01-12T01:55:53.812Z,2.49
2023-01-12T01:56:56.036Z,2.85
2023-01-12T01:57:58.239Z,2.60
2023-01-12T01:59:00.470Z,2.77
2023-01-12T02:00:02.962Z,2.74
2023-01-12T02:01:05.847Z,2.70
2023-01-12T02:02:08.122Z,3.01
2023-01-12T02:03:10.591Z,2.83
2023-01-12T02:04:13.097Z,2.58
2023-01-12T02:05:15.621Z,2.77
2023-01-12T02:06:18.026Z,2.76
2023-01-12T02:07:20.499Z,2.88
2023-01-12T02:08:23.015Z,2.39
2023-01-12T02:09:25.427Z,2.61
2023-01-12T02:10:27.890Z,2.42
2023-01-12T02:11:30.555Z,2.49
2023-01-12T02:12:33.080Z,2.47
2023-01-12T02:13:35.479Z,2.70
2023-01-12T02:14:37.876Z,2.52
2023-01-12T02:15:40.339Z,2.58
2023-01-12T02:16:42.796Z,3.21
2023-01-12T02:17:44.965Z,2.60
2023-01-12T02:18:47.183Z,2.99
2023-01-12T02:19:49.372Z,2.13
2023-01-12T02:20:51.601Z,2.12
2023-01-12T02:21:54.236Z,2.13
2023-01-12T02:22:56.737Z,2.26
2023-01-12T02:23:59.229Z,2.36
2023-01-12T02:25:01.690Z,2.28
2023-01-12T02:26:04.121Z,2.67
2023-01-12T02:27:06.813Z,2.83
2023-01-12T02:28:09.273Z,3.94
2023-01-12T02:29:11.757Z,2.65
2023-01-12T02:30:14.190Z,2.55
2023-01-12T02:31:16.472Z,3.17
2023-01-12T02:32:19.108Z,3.26
2023-01-12T02:33:21.354Z,2.37
2023-01-12T02:34:23.561Z,2.76
2023-01-12T02:35:28.664Z,2.37
2023-01-12T02:36:30.868Z,2.38
2023-01-12T02:37:33.309Z,2.80
2023-01-12T02:38:35.519Z,2.33
2023-01-12T02:39:39.129Z,2.33
2023-01-12T02:40:41.512Z,2.41
2023-01-12T02:41:43.703Z,2.55
2023-01-12T02:42:46.127Z,2.47
2023-01-12T02:43:48.305Z,2.34
2023-01-12T02:44:50.513Z,2.43
2023-01-12T02:45:52.741Z,2.35
2023-01-12T02:46:54.991Z,2.30
2023-01-12T02:47:57.353Z,2.42
2023-01-12T02:48:59.550Z,2.50
2023-01-12T02:50:01.784Z,2.64
2023-01-12T02:51:04.005Z,3.05
2023-01-12T02:52:06.179Z,3.79
2023-01-12T02:53:08.540Z,5.02
2023-01-12T02:54:10.982Z,3.77
2023-01-12T02:55:13.473Z,2.59
2023-01-12T02:56:15.949Z,2.20
2023-01-12T02:57:18.426Z,2.68
2023-01-12T02:58:21.036Z,2.49
2023-01-12T02:59:23.592Z,2.52
2023-01-12T03:00:26.105Z,4.85
2023-01-12T03:01:28.671Z,2.52
2023-01-12T03:02:31.150Z,2.43
2023-01-12T03:03:33.771Z,2.48
2023-01-12T03:04:36.153Z,2.84
2023-01-12T03:05:38.358Z,2.56
2023-01-12T03:06:40.538Z,2.94
2023-01-12T03:07:42.751Z,2.89
2023-01-12T03:08:45.289Z,2.72
2023-01-12T03:09:47.742Z,2.38
2023-01-12T03:10:50.208Z,2.44
2023-01-12T03:11:52.716Z,2.47
2023-01-12T03:12:55.134Z,2.36
2023-01-12T03:13:57.732Z,2.35
2023-01-12T03:15:00.107Z,2.18
2023-01-12T03:16:02.585Z,2.52
2023-01-12T03:17:05.107Z,2.42
2023-01-12T03:18:07.669Z,2.29
2023-01-12T03:19:10.159Z,2.59
2023-01-12T03:20:12.644Z,2.85
2023-01-12T03:21:15.210Z,2.83
2023-01-12T03:22:17.690Z,2.41
2023-01-12T03:23:19.992Z,2.82
2023-01-12T03:24:22.569Z,2.95
2023-01-12T03:25:25.068Z,2.84
2023-01-12T03:26:27.294Z,2.44
2023-01-12T03:27:29.476Z,2.45
2023-01-12T03:28:31.640Z,2.44
2023-01-12T03:29:34.188Z,2.42
2023-01-12T03:30:36.597Z,2.33
2023-01-12T03:31:39.075Z,2.42
2023-01-12T03:32:41.555Z,2.46
2023-01-12T03:33:44.084Z,2.38
2023-01-12T03:34:46.732Z,2.39
2023-01-12T03:35:49.169Z,2.61
2023-01-12T03:36:51.598Z,2.43
2023-01-12T03:37:53.968Z,2.41
2023-01-12T03:38:56.377Z,2.45
2023-01-12T03:39:59.035Z,2.62
2023-01-12T03:41:01.582Z,2.73
2023-01-12T03:42:04.026Z,2.35
2023-01-12T03:43:06.419Z,2.40
2023-01-12T03:44:08.826Z,2.45
2023-01-12T03:45:11.414Z,2.33
2023-01-12T03:46:13.971Z,2.25
2023-01-12T03:47:16.368Z,2.78
2023-01-12T03:48:18.769Z,2.76
2023-01-12T03:49:21.203Z,2.55
2023-01-12T03:50:23.840Z,2.62
2023-01-12T03:51:26.184Z,2.57
2023-01-12T03:52:28.380Z,2.46
2023-01-12T03:53:30.617Z,2.55
2023-01-12T03:54:33.051Z,2.60
2023-01-12T03:55:35.660Z,2.69
2023-01-12T03:56:38.052Z,2.58
2023-01-12T03:57:40.460Z,2.45
2023-01-12T03:58:42.691Z,2.62
2023-01-12T03:59:44.891Z,2.52
2023-01-12T04:00:47.377Z,2.48
2023-01-12T04:01:49.905Z,2.44
2023-01-12T04:02:52.401Z,2.72
2023-01-12T04:03:54.871Z,2.88
2023-01-12T04:04:57.235Z,2.49
2023-01-12T04:05:59.864Z,2.25
2023-01-12T04:07:02.092Z,2.48
2023-01-12T04:08:04.348Z,2.40
2023-01-12T04:09:06.545Z,2.50
2023-01-12T04:10:08.793Z,2.48
2023-01-12T04:11:11.375Z,2.28
2023-01-12T04:12:13.851Z,2.50
2023-01-12T04:13:16.480Z,2.47
2023-01-12T04:14:18.952Z,2.49
2023-01-12T04:15:21.129Z,2.36
2023-01-12T04:16:23.876Z,2.83
2023-01-12T04:17:26.501Z,3.18
2023-01-12T04:18:28.950Z,2.64
2023-01-12T04:19:31.186Z,2.74
2023-01-12T04:20:33.415Z,2.64
2023-01-12T04:21:35.797Z,2.82
2023-01-12T04:22:38.290Z,2.66
2023-01-12T04:23:40.746Z,3.17
2023-01-12T04:24:43.159Z,2.79
2023-01-12T04:25:45.631Z,3.12
2023-01-12T04:26:48.216Z,2.74
2023-01-12T04:27:50.624Z,3.17
2023-01-12T04:28:53.299Z,2.88
2023-01-12T04:29:55.764Z,2.60
2023-01-12T04:30:58.251Z,2.47
2023-01-12T04:32:00.947Z,2.63
2023-01-12T04:33:03.218Z,4.04
2023-01-12T04:34:05.834Z,2.91
2023-01-12T04:35:08.255Z,3.28
2023-01-12T04:36:10.642Z,3.06
2023-01-12T04:37:13.311Z,2.47
2023-01-12T04:38:15.584Z,2.42
2023-01-12T04:39:17.800Z,2.39
2023-01-12T04:40:19.968Z,2.81
2023-01-12T04:41:22.169Z,2.67
2023-01-12T04:42:24.412Z,2.88
2023-01-12T04:43:26.587Z,2.60
2023-01-12T04:44:29.243Z,3.28
2023-01-12T04:45:31.726Z,2.94
2023-01-12T04:46:33.993Z,2.83
2023-01-12T04:47:36.194Z,3.04
2023-01-12T04:48:38.408Z,3.60
2023-01-12T04:49:40.600Z,4.57
2023-01-12T04:50:42.806Z,3.39
2023-01-12T04:51:45.166Z,3.22
2023-01-12T04:52:47.387Z,3.38
2023-01-12T04:53:49.637Z,3.18
2023-01-12T04:54:51.869Z,3.18
2023-01-12T04:55:54.067Z,3.04
2023-01-12T04:56:56.286Z,3.42
2023-01-12T04:57:58.452Z,3.21
2023-01-12T04:59:00.672Z,3.98
2023-01-12T05:00:02.877Z,4.28
2023-01-12T05:01:05.267Z,3.95
2023-01-12T05:02:07.914Z,8.37
2023-01-12T05:03:10.438Z,11.28
2023-01-12T05:04:12.923Z,6.56
2023-01-12T05:05:15.315Z,5.02
2023-01-12T05:06:17.556Z,4.20
2023-01-12T05:07:19.920Z,4.70
2023-01-12T05:08:22.516Z,5.15
2023-01-12T05:09:24.901Z,5.14
2023-01-12T05:10:27.360Z,4.69
2023-01-12T05:11:29.775Z,5.13
2023-01-12T05:12:32.309Z,4.68
2023-01-12T05:13:35.024Z,3.67
2023-01-12T05:14:37.483Z,3.76
2023-01-12T05:15:39.889Z,3.35
2023-01-12T05:16:42.352Z,3.58
2023-01-12T05:17:44.864Z,3.58
2023-01-12T05:18:47.418Z,4.42
2023-01-12T05:19:49.881Z,5.07
2023-01-12T05:20:52.098Z,3.73
2023-01-12T05:21:54.317Z,4.12
2023-01-12T05:22:56.584Z,3.78
2023-01-12T05:23:58.916Z,3.08
2023-01-12T05:25:01.198Z,3.62
2023-01-12T05:26:03.693Z,3.82
2023-01-12T05:27:06.117Z,3.54
2023-01-12T05:28:08.492Z,2.88
2023-01-12T05:29:10.998Z,2.39
2023-01-12T05:30:13.626Z,2.68
2023-01-12T05:31:16.088Z,2.76
2023-01-12T05:32:18.496Z,2.59
2023-01-12T05:33:20.963Z,2.84
2023-01-12T05:34:23.505Z,3.17
2023-01-12T05:35:26.024Z,3.18
2023-01-12T05:36:28.492Z,2.57
2023-01-12T05:37:30.883Z,2.64
2023-01-12T05:38:33.437Z,3.07
2023-01-12T05:39:36.306Z,3.08
2023-01-12T05:40:38.724Z,2.98
2023-01-12T05:41:41.243Z,2.55
2023-01-12T05:42:43.653Z,2.37
2023-01-12T05:43:46.065Z,2.37
2023-01-12T05:44:48.497Z,2.77
2023-01-12T05:45:50.998Z,3.05
2023-01-12T05:46:53.473Z,3.13
2023-01-12T05:47:55.995Z,2.82
2023-01-12T05:48:58.417Z,2.93
2023-01-12T05:50:00.908Z,2.72
2023-01-12T05:51:03.308Z,2.30
2023-01-12T05:52:05.557Z,2.70
2023-01-12T05:53:07.938Z,2.60
2023-01-12T05:54:10.407Z,2.84
2023-01-12T05:55:12.979Z,3.41
2023-01-12T05:56:15.433Z,3.33
2023-01-12T05:57:17.921Z,3.10
2023-01-12T05:58:20.395Z,3.51
2023-01-12T05:59:23.187Z,2.68
2023-01-12T06:00:25.616Z,2.50
2023-01-12T06:01:27.861Z,2.49
2023-01-12T06:02:30.141Z,2.95
2023-01-12T06:03:32.322Z,2.81
2023-01-12T06:04:34.684Z,2.60
2023-01-12T06:05:36.993Z,2.48
2023-01-12T06:06:39.477Z,2.62
2023-01-12T06:07:41.865Z,2.25
2023-01-12T06:08:44.377Z,2.12
2023-01-12T06:09:46.791Z,2.33
2023-01-12T06:10:49.282Z,2.51
2023-01-12T06:11:51.754Z,2.80
2023-01-12T06:12:54.268Z,2.85
2023-01-12T06:13:56.652Z,2.64
2023-01-12T06:14:59.151Z,2.69
2023-01-12T06:16:01.884Z,2.52
2023-01-12T06:17:04.424Z,2.68
2023-01-12T06:18:06.851Z,3.58
2023-01-12T06:19:10.700Z,3.17
2023-01-12T06:20:13.297Z,2.84
2023-01-12T06:21:15.977Z,3.38
2023-01-12T06:22:18.497Z,3.15
2023-01-12T06:23:21.019Z,2.96
2023-01-12T06:24:24.845Z,3.32
2023-01-12T06:25:27.319Z,2.94
2023-01-12T06:26:29.674Z,2.70
2023-01-12T06:27:31.918Z,2.54
2023-01-12T06:28:34.161Z,3.66
2023-01-12T06:29:36.339Z,2.78
2023-01-12T06:30:38.667Z,2.28
2023-01-12T06:31:41.231Z,2.36
2023-01-12T06:32:43.661Z,2.47
2023-01-12T06:33:46.124Z,2.47
2023-01-12T06:34:48.591Z,2.08
2023-01-12T06:35:51.314Z,1.92
2023-01-12T06:36:54.067Z,1.82
2023-01-12T06:37:56.301Z,2.43
2023-01-12T06:38:58.518Z,2.08
2023-01-12T06:40:01.544Z,2.18
2023-01-12T06:41:03.985Z,2.33
2023-01-12T06:42:06.339Z,1.87
2023-01-12T06:43:08.601Z,1.84
2023-01-12T06:44:10.800Z,1.62
2023-01-12T06:45:13.053Z,1.62
2023-01-12T06:46:15.321Z,1.77
2023-01-12T06:47:17.682Z,1.73
2023-01-12T06:48:19.956Z,1.76
2023-01-12T06:49:22.429Z,1.67
2023-01-12T06:50:24.883Z,1.72
2023-01-12T06:51:27.127Z,1.88
2023-01-12T06:52:29.387Z,1.92
2023-01-12T06:53:31.933Z,1.93
2023-01-12T06:54:34.406Z,1.85
2023-01-12T06:55:36.845Z,1.72
2023-01-12T06:56:39.239Z,1.47
2023-01-12T06:57:41.695Z,1.70
2023-01-12T06:58:44.247Z,1.85
2023-01-12T06:59:46.493Z,1.64
2023-01-12T07:00:48.681Z,1.68
2023-01-12T07:01:51.086Z,1.61
2023-01-12T07:02:53.464Z,1.38
2023-01-12T07:03:55.670Z,1.67
2023-01-12T07:04:57.856Z,1.85
2023-01-12T07:06:00.342Z,1.77
2023-01-12T07:07:02.905Z,1.72
2023-01-12T07:08:05.272Z,1.65
2023-01-12T07:09:07.526Z,2.06
2023-01-12T07:10:09.735Z,1.92
2023-01-12T07:11:11.999Z,1.70
2023-01-12T07:12:14.257Z,1.88
2023-01-12T07:13:16.652Z,2.07
2023-01-12T07:14:19.137Z,2.18
2023-01-12T07:15:21.612Z,2.81
2023-01-12T07:16:24.106Z,1.96
2023-01-12T07:17:26.691Z,1.92
2023-01-12T07:18:29.040Z,1.65
2023-01-12T07:19:31.596Z,1.60
2023-01-12T07:20:34.044Z,1.70
2023-01-12T07:21:36.284Z,1.94
2023-01-12T07:22:38.504Z,2.02
2023-01-12T07:23:40.872Z,1.98
2023-01-12T07:24:43.269Z,1.92
2023-01-12T07:25:45.825Z,1.59
2023-01-12T07:26:48.052Z,2.17
2023-01-12T07:27:50.311Z,2.09
2023-01-12T07:28:52.631Z,1.83
2023-01-12T07:29:54.851Z,1.82
2023-01-12T07:30:57.151Z,1.95
2023-01-12T07:31:59.379Z,1.82
2023-01-12T07:33:01.563Z,1.92
2023-01-12T07:34:04.053Z,2.11
2023-01-12T07:35:06.440Z,1.96
2023-01-12T07:36:08.955Z,1.85
2023-01-12T07:37:11.184Z,1.97
2023-01-12T07:38:15.282Z,1.84
2023-01-12T07:39:17.638Z,1.93
2023-01-12T07:40:20.035Z,2.02
2023-01-12T07:41:22.259Z,1.86
2023-01-12T07:42:24.526Z,1.89
2023-01-12T07:43:26.760Z,1.95
2023-01-12T07:44:29.105Z,2.48
2023-01-12T07:45:31.269Z,1.82
2023-01-12T07:46:33.579Z,1.89
2023-01-12T07:47:35.918Z,1.93
2023-01-12T07:48:38.135Z,2.54
2023-01-12T07:49:40.588Z,2.35
2023-01-12T07:50:42.791Z,2.02
2023-01-12T07:51:45.015Z,2.07
2023-01-12T07:52:47.242Z,2.04
2023-01-12T07:53:49.550Z,1.86
2023-01-12T07:54:51.803Z,1.72
2023-01-12T07:55:53.973Z,2.54
2023-01-12T07:56:56.209Z,2.08
2023-01-12T07:57:58.515Z,1.90
2023-01-12T07:59:00.707Z,1.94
2023-01-12T08:00:03.099Z,1.98
2023-01-12T08:01:05.296Z,1.98
2023-01-12T08:02:07.721Z,1.97
2023-01-12T08:03:10.225Z,1.98
2023-01-12T08:04:12.570Z,2.21
2023-01-12T08:05:15.282Z,2.24
2023-01-12T08:06:17.469Z,2.07
2023-01-12T08:07:19.920Z,2.42
2023-01-12T08:08:22.416Z,1.87
2023-01-12T08:09:24.839Z,1.74
2023-01-12T08:10:27.516Z,2.10
2023-01-12T08:11:30.067Z,2.16
2023-01-12T08:12:32.460Z,2.00
2023-01-12T08:13:34.864Z,2.50
2023-01-12T08:14:37.393Z,2.16
2023-01-12T08:15:40.064Z,2.61
2023-01-12T08:16:42.293Z,2.46
2023-01-12T08:17:44.538Z,2.08
2023-01-12T08:18:46.982Z,2.00
2023-01-12T08:19:49.591Z,2.33
2023-01-12T08:20:52.109Z,1.98
2023-01-12T08:21:54.541Z,2.15
2023-01-12T08:22:56.710Z,2.34
2023-01-12T08:23:59.514Z,2.54
2023-01-12T08:25:01.988Z,2.39
2023-01-12T08:26:04.445Z,2.27
2023-01-12T08:27:06.614Z,2.44
2023-01-12T08:28:08.793Z,2.12
2023-01-12T08:29:12.974Z,2.15
2023-01-12T08:30:15.074Z,2.27
2023-01-12T08:32:20.201Z,2.55
2023-01-12T08:33:22.643Z,2.28
2023-01-12T08:34:25.079Z,2.33
2023-01-12T08:35:27.433Z,2.28
2023-01-12T08:36:29.973Z,2.58
2023-01-12T08:37:32.428Z,2.27
2023-01-12T08:38:34.837Z,2.44
2023-01-12T08:39:37.241Z,2.52
2023-01-12T08:40:39.446Z,2.70
2023-01-12T08:41:41.945Z,2.44
2023-01-12T08:42:44.507Z,2.35
2023-01-12T08:43:46.955Z,2.37
2023-01-12T08:44:49.400Z,2.58
2023-01-12T08:45:51.787Z,2.42
2023-01-12T08:46:54.464Z,2.30
2023-01-12T08:47:56.775Z,2.22
2023-01-12T08:48:59.621Z,2.12
2023-01-12T08:50:02.113Z,2.32
2023-01-12T08:51:04.342Z,2.53
2023-01-12T08:52:06.898Z,2.58
2023-01-12T08:53:09.092Z,2.48
2023-01-12T08:54:11.638Z,2.28
2023-01-12T08:55:14.159Z,3.10
2023-01-12T08:56:16.669Z,2.50
2023-01-12T08:57:19.283Z,2.19
2023-01-12T08:58:21.734Z,2.29
2023-01-12T08:59:24.068Z,2.46
2023-01-12T09:00:26.337Z,2.52
2023-01-12T09:01:28.916Z,2.37
2023-01-12T09:02:31.486Z,2.06
2023-01-12T09:03:33.741Z,2.33
2023-01-12T09:04:36.195Z,2.46
2023-01-12T09:05:38.418Z,2.34
2023-01-12T09:06:40.852Z,2.34
2023-01-12T09:07:43.478Z,2.24
2023-01-12T09:08:46.010Z,2.37
2023-01-12T09:09:48.440Z,2.30
2023-01-12T09:10:50.585Z,2.31
2023-01-12T09:11:53.043Z,2.47
2023-01-12T09:12:55.292Z,2.34
2023-01-12T09:13:57.496Z,2.44
2023-01-12T09:14:59.679Z,2.13
2023-01-12T09:16:12.368Z,2.31
2023-01-12T09:17:06.064Z,2.48
2023-01-12T09:18:08.651Z,2.48
2023-01-12T09:19:10.827Z,2.36
2023-01-12T09:20:13.070Z,2.27
2023-01-12T09:21:15.501Z,2.31
2023-01-12T09:22:17.974Z,2.48
2023-01-12T09:23:20.636Z,2.66
2023-01-12T09:24:23.145Z,2.72
2023-01-12T09:25:25.598Z,2.41
2023-01-12T09:26:28.144Z,2.47
2023-01-12T09:27:30.383Z,2.32
2023-01-12T09:28:32.821Z,2.65
2023-01-12T09:29:34.955Z,2.37
2023-01-12T09:30:37.409Z,2.41
2023-01-12T09:31:39.964Z,2.65
2023-01-12T09:32:42.542Z,2.48
2023-01-12T09:33:45.023Z,2.53
2023-01-12T09:34:47.437Z,2.77
2023-01-12T09:35:49.617Z,2.34
2023-01-12T09:36:51.830Z,2.47
2023-01-12T09:37:54.367Z,2.38
2023-01-12T09:38:56.998Z,2.24
2023-01-12T09:39:59.172Z,2.33
2023-01-12T09:41:10.516Z,2.78
2023-01-12T09:42:13.599Z,1.62
2023-01-12T09:43:16.810Z,2.58
2023-01-12T09:44:19.542Z,2.46
2023-01-12T09:45:22.427Z,2.46
2023-01-12T09:46:25.303Z,2.59
2023-01-12T09:47:28.207Z,2.33
2023-01-12T09:48:31.471Z,2.52
2023-01-12T09:49:34.838Z,2.41
2023-01-12T09:50:38.123Z,2.46
2023-01-12T09:51:41.007Z,2.30
2023-01-12T09:52:43.876Z,2.20
2023-01-12T09:53:47.497Z,2.37
2023-01-12T09:54:50.441Z,2.39
2023-01-12T09:55:53.212Z,2.29
2023-01-12T09:56:56.209Z,2.48
2023-01-12T09:57:58.979Z,2.43
2023-01-12T09:59:01.950Z,2.37
2023-01-12T10:00:05.161Z,2.22
2023-01-12T10:01:10.620Z,2.24
2023-01-12T10:02:12.936Z,2.84
2023-01-12T10:03:16.074Z,2.62
2023-01-12T10:04:19.182Z,2.56
2023-01-12T10:05:26.050Z,2.35
2023-01-12T10:06:26.784Z,2.70
2023-01-12T10:07:29.653Z,2.52
2023-01-12T10:08:32.323Z,2.52
2023-01-12T10:09:35.088Z,2.42
2023-01-12T10:10:38.200Z,2.41
2023-01-12T10:11:41.270Z,2.71
2023-01-12T10:12:44.222Z,2.55
2023-01-12T10:13:47.002Z,2.87
2023-01-12T10:14:50.027Z,2.67
2023-01-12T10:15:53.052Z,2.28
2023-01-12T10:16:55.820Z,2.50
2023-01-12T10:17:58.912Z,2.15
2023-01-12T10:19:01.987Z,2.34
2023-01-12T10:20:04.788Z,2.41
2023-01-12T10:21:07.645Z,2.58
2023-01-12T10:22:10.414Z,2.63
2023-01-12T10:23:13.288Z,2.25
2023-01-12T10:24:16.878Z,2.68
2023-01-12T10:25:19.643Z,2.54
2023-01-12T10:26:22.617Z,2.57
2023-01-12T10:27:25.513Z,2.47
2023-01-12T10:28:28.825Z,2.42
2023-01-12T10:29:31.504Z,2.76
2023-01-12T10:30:34.327Z,2.81
2023-01-12T10:31:37.475Z,2.66
2023-01-12T10:32:42.203Z,2.92
2023-01-12T10:34:48.296Z,2.44
2023-01-12T10:35:50.846Z,2.35
2023-01-12T10:37:56.181Z,2.83
2023-01-12T10:38:59.278Z,2.48
2023-01-12T10:40:02.262Z,2.50
2023-01-12T10:41:05.422Z,2.68
2023-01-12T10:42:08.520Z,2.52
2023-01-12T10:43:15.712Z,2.65
2023-01-12T10:44:16.514Z,2.64
2023-01-12T10:45:19.181Z,2.49
2023-01-12T10:46:22.602Z,2.33
2023-01-12T10:47:25.653Z,2.79
2023-01-12T10:48:28.630Z,2.49
2023-01-12T10:49:31.834Z,2.33
2023-01-12T10:50:35.006Z,2.42
2023-01-12T10:51:38.059Z,2.54
2023-01-12T10:52:41.064Z,2.56
2023-01-12T10:53:44.319Z,2.41
2023-01-12T10:54:47.601Z,2.78
2023-01-12T10:55:50.621Z,2.51
2023-01-12T10:56:53.526Z,2.89
2023-01-12T10:57:56.463Z,2.52
2023-01-12T10:58:59.330Z,2.67
2023-01-12T11:00:02.331Z,2.67
2023-01-12T11:01:05.674Z,2.77
2023-01-12T11:02:09.156Z,2.96
2023-01-12T11:03:12.352Z,2.78
2023-01-12T11:04:15.436Z,2.72
2023-01-12T11:05:18.508Z,2.82
2023-01-12T11:06:21.281Z,2.72
2023-01-12T11:07:24.168Z,2.65
2023-01-12T11:08:26.933Z,3.12
2023-01-12T11:09:29.812Z,2.77
2023-01-12T11:10:32.600Z,2.54
2023-01-12T11:11:35.881Z,2.82
2023-01-12T11:12:39.359Z,2.65
2023-01-12T11:13:42.327Z,2.73
2023-01-12T11:14:45.612Z,2.65
2023-01-12T11:15:48.882Z,2.81
2023-01-12T11:16:51.840Z,2.85
2023-01-12T11:17:55.069Z,2.58
2023-01-12T11:18:58.156Z,2.63
2023-01-12T11:31:09.337Z,2.70
2023-01-12T11:32:12.422Z,2.43
2023-01-12T11:33:15.537Z,2.88
2023-01-12T11:34:18.448Z,2.50
2023-01-12T11:35:21.526Z,2.80
2023-01-12T11:36:24.502Z,2.59
2023-01-12T11:37:27.516Z,2.63
2023-01-12T11:38:30.533Z,2.62
2023-01-12T11:39:33.604Z,2.78
2023-01-12T11:40:36.574Z,2.62
2023-01-12T11:41:39.262Z,2.97
2023-01-12T11:42:42.448Z,2.82
2023-01-12T11:43:45.611Z,2.43
2023-01-12T11:44:48.717Z,2.92
2023-01-12T11:45:51.727Z,2.68
2023-01-12T11:46:54.847Z,2.38
2023-01-12T11:47:58.014Z,2.42
2023-01-12T11:49:01.042Z,2.59
2023-01-12T11:50:04.094Z,2.36
2023-01-12T11:51:07.185Z,2.62
2023-01-12T11:52:10.252Z,2.54
2023-01-12T11:53:13.243Z,2.56
2023-01-12T11:54:16.504Z,2.70
2023-01-12T11:55:19.285Z,2.58
2023-01-12T11:56:22.364Z,2.46
2023-01-12T11:57:25.449Z,2.73
2023-01-12T11:58:28.406Z,2.93
2023-01-12T11:59:31.291Z,2.67
2023-01-12T12:00:34.061Z,2.48
2023-01-12T12:01:36.752Z,2.22
2023-01-12T12:02:39.450Z,2.38
2023-01-12T12:03:42.246Z,2.37
2023-01-12T12:04:45.263Z,2.51
2023-01-12T12:05:48.540Z,2.52
2023-01-12T12:06:51.736Z,3.11
2023-01-12T12:07:54.601Z,2.82
2023-01-12T12:08:57.767Z,2.75
2023-01-12T12:10:01.083Z,2.37
2023-01-12T12:11:04.148Z,2.68
2023-01-12T12:12:07.138Z,2.80
2023-01-12T12:13:10.212Z,2.28
2023-01-12T12:14:13.278Z,2.45
2023-01-12T12:15:16.570Z,2.52
2023-01-12T12:16:19.613Z,2.70
2023-01-12T12:17:22.425Z,2.71
2023-01-12T12:18:25.558Z,2.58
2023-01-12T12:19:28.572Z,2.48
2023-01-12T12:20:31.363Z,2.62
2023-01-12T12:21:34.526Z,2.76
2023-01-12T12:22:37.506Z,2.62
2023-01-12T12:23:41.564Z,2.53
2023-01-12T12:24:45.214Z,2.53
2023-01-12T12:25:48.088Z,2.69
2023-01-12T12:26:50.966Z,2.61
2023-01-12T12:27:53.832Z,2.21
2023-01-12T12:28:56.541Z,2.12
2023-01-12T12:29:59.574Z,2.39
2023-01-12T12:31:02.701Z,2.42
2023-01-12T12:32:05.653Z,2.73
2023-01-12T12:33:08.510Z,2.39
2023-01-12T12:34:11.642Z,2.58
2023-01-12T12:35:14.685Z,2.67
2023-01-12T12:36:17.749Z,2.29
2023-01-12T12:37:20.930Z,2.55
2023-01-12T12:38:24.103Z,2.39
2023-01-12T12:39:27.520Z,2.66
2023-01-12T12:40:30.275Z,2.85
2023-01-12T12:41:32.862Z,2.42
2023-01-12T12:42:35.823Z,2.42
2023-01-12T12:43:38.421Z,2.49
2023-01-12T12:44:41.280Z,2.67
2023-01-12T12:45:44.357Z,2.88
2023-01-12T12:46:47.635Z,2.52
2023-01-12T12:47:50.492Z,2.68
2023-01-12T12:48:53.574Z,2.34
2023-01-12T12:49:56.346Z,2.58
2023-01-12T12:50:59.422Z,2.29
2023-01-12T12:52:02.302Z,2.67
2023-01-12T12:53:05.072Z,2.42
2023-01-12T12:54:08.046Z,2.35
2023-01-12T12:55:11.343Z,2.72
2023-01-12T12:56:14.100Z,2.81
2023-01-12T12:57:16.769Z,2.78
2023-01-12T12:58:19.437Z,2.80
2023-01-12T12:59:22.335Z,2.56
2023-01-12T13:00:25.438Z,2.65
2023-01-12T13:01:28.719Z,2.34
2023-01-12T13:02:31.712Z,2.57
2023-01-12T13:03:34.760Z,2.48
2023-01-12T13:04:37.840Z,2.53
2023-01-12T13:05:40.801Z,2.72
2023-01-12T13:06:43.794Z,2.68
2023-01-12T13:07:46.704Z,2.38
2023-01-12T13:08:49.624Z,2.35
2023-01-12T13:09:52.697Z,2.62
2023-01-12T13:10:55.671Z,2.65
2023-01-12T13:11:58.486Z,2.61
2023-01-12T13:13:01.839Z,2.72
2023-01-12T13:14:05.025Z,2.55
2023-01-12T13:15:08.000Z,2.75
2023-01-12T13:16:11.117Z,2.32
2023-01-12T13:17:13.947Z,2.18
2023-01-12T13:18:18.657Z,2.52
2023-01-12T13:19:21.493Z,2.54
2023-01-12T13:20:25.970Z,2.89
2023-01-12T13:21:29.242Z,2.57
2023-01-12T13:22:32.111Z,2.34
2023-01-12T13:23:35.288Z,2.73
2023-01-12T13:24:38.580Z,2.53
2023-01-12T13:25:41.247Z,2.50
2023-01-12T13:26:44.230Z,2.45
2023-01-12T13:27:47.103Z,2.72
2023-01-12T13:28:50.201Z,2.75
2023-01-12T13:29:53.156Z,2.55
2023-01-12T13:30:56.485Z,2.62
2023-01-12T13:31:59.516Z,2.77
2023-01-12T13:33:02.387Z,2.74
2023-01-12T13:34:05.168Z,2.62
2023-01-12T13:35:07.838Z,2.58
2023-01-12T13:36:10.961Z,2.45
2023-01-12T13:37:14.299Z,2.39
2023-01-12T13:38:17.177Z,2.72
2023-01-12T13:39:19.941Z,2.39
2023-01-12T13:40:22.626Z,2.42
2023-01-12T13:41:25.213Z,2.47
2023-01-12T13:42:28.053Z,2.31
2023-01-12T13:43:30.831Z,2.64
2023-01-12T13:44:33.643Z,2.36
2023-01-12T13:45:36.373Z,2.45
2023-01-12T13:46:39.203Z,2.52
2023-01-12T13:47:41.919Z,2.74
2023-01-12T13:48:44.787Z,2.72
2023-01-12T13:49:47.874Z,2.60
2023-01-12T13:50:50.749Z,2.68
2023-01-12T13:51:53.420Z,2.65
2023-01-12T13:52:56.196Z,2.67
2023-01-12T13:54:00.007Z,2.78
2023-01-12T13:55:05.722Z,2.79
2023-01-12T13:56:08.291Z,2.92
2023-01-12T13:57:10.964Z,2.84
2023-01-12T13:58:13.736Z,2.54
2023-01-12T13:59:16.612Z,2.58
2023-01-12T14:00:19.286Z,2.97
2023-01-12T14:01:22.028Z,2.74
2023-01-12T14:02:25.156Z,3.08
2023-01-12T14:03:28.180Z,2.56
2023-01-12T14:04:30.882Z,2.91
2023-01-12T14:05:33.760Z,2.79
2023-01-12T14:06:36.535Z,3.48
2023-01-12T14:07:39.296Z,2.55